Terminal Aerodrome Forecast
Issued by NWS

Home | Current Version | Previous Version | Text Only | Print | Product List | Glossary On
Versions: 1 2 3 4 5 6 7 8 9 10 11 12 13 14 15 16 17 18 19
000
FTUS42 KTBW 050120 AAA
TAFPIE
TAF AMD
KPIE 050120Z 0501/0524 VRB05KT P6SM VCTS FEW035CB BKN250
      TEMPO 0501/0502 VRB10G15KT 6SM TSRA BKN025CB
     FM050300 VRB03KT P6SM SCT050 BKN250
     FM051400 15007KT P6SM FEW030 SCT250
     FM051600 VRB06KT P6SM VCTS SCT045CB BKN250=

USA.gov is the U.S. government's official web portal to all federal, state and local government web resources and services.